Portada
METAR-TAF:

METAR-TAF

Aeroports :

Tahlequah, Oklahoma, Estats Units d'Amèrica

latitud: 35-55-44N, longitud: 095-00-16W, altitud: 266 m

Observació

L'informe es va fer fa 15 minuts, a les 00:35 UTC
Vent 5 kt del Nord
Temperatura 2°C
Humitat 93%
Pressió 1020 hPa
Visibilitat: 16.1 km
Cel cobert a una alçada de 700 ft

METAR: KTQH 040035Z AUTO 36005KT 10SM OVC007 02/01 A3011 RMK AO2

Hora: 19:50 (00:50 UTC)


TAF: manca

Observacions i pronòstics meteorològics de més de 4000 aeroports (METAR i TAF).

Les estacions disponibles són els punts grocs i vermells al mapa.

Posi el ratolí al punt desitjat per veure el nom de l'estació.

Feu clic per veure les observacions i els pronòstics meteorològics.

Per canviar el mapa: feu clic els botons verds amb una creu de color negre per apropar; al botó verd amb un guió per allunyar la imatge; o en les fletxes verdes per a mapes adjacents.


METAR-TAF: